Time;durP1;ratioP1;P1;durP2;ratioP2;P2;SDS_P1;SDS_P2;PMS_P1;PMS_P2;Temp;Humidity;BMP_temperature;BMP_pressure;BME280_temperature;BME280_humidity;BME280_pressure;Samples;Min_cycle;Max_cycle;Signal;HPM_P1;HPM_P2
2022/09/06 00:00:26;;;;;;;7.23;4.27;;;;;;;-141.28;100.00;49904.31;5098730;28;20222;-76
2022/09/06 00:02:53;;;;;;;8.00;5.13;;;;;;;-141.28;100.00;49851.31;5110621;28;20278;-76
2022/09/06 00:05:20;;;;;;;9.47;5.40;;;;;;;-141.28;100.00;49880.75;5101516;28;20217;-74
2022/09/06 00:07:48;;;;;;;13.30;6.53;;;;;;;-141.28;100.00;49894.50;5119317;28;20223;-75
2022/09/06 00:10:15;;;;;;;9.40;5.83;;;;;;;-141.28;100.00;49902.34;5106215;28;20637;-75
2022/09/06 00:12:43;;;;;;;10.67;6.60;;;;;;;-141.28;100.00;49918.06;5102636;28;20195;-75
2022/09/06 00:15:11;;;;;;;8.63;5.63;;;;;;;-141.28;100.00;49921.97;5075518;28;20219;-76
2022/09/06 00:17:38;;;;;;;13.43;7.00;;;;;;;-141.28;100.00;49925.91;5073165;28;20200;-75
2022/09/06 00:20:07;;;;;;;10.40;6.70;;;;;;;-141.28;100.00;49937.69;5073128;28;20279;-75
2022/09/06 00:22:35;;;;;;;8.83;5.80;;;;;;;-141.28;100.00;49933.75;5079773;28;20198;-76
2022/09/06 00:25:04;;;;;;;10.20;7.27;;;;;;;-141.28;100.00;49918.06;5094670;28;20192;-75
2022/09/06 00:27:33;;;;;;;14.00;8.60;;;;;;;-141.28;100.00;49859.19;5088545;28;20228;-76
2022/09/06 00:30:04;;;;;;;13.77;6.47;;;;;;;-141.28;100.00;49937.69;5072993;28;20223;-74
2022/09/06 00:32:33;;;;;;;9.97;6.53;;;;;;;-141.28;100.00;49904.31;5055026;28;20207;-75
2022/09/06 00:35:00;;;;;;;8.70;6.07;;;;;;;-141.28;100.00;49867.03;5087653;28;20195;-75
2022/09/06 00:37:27;;;;;;;8.80;5.80;;;;;;;-141.28;100.00;49865.06;5073023;28;20208;-76
2022/09/06 00:39:54;;;;;;;4.77;4.20;;;;;;;-141.28;100.00;49853.28;5075281;28;20254;-75
2022/09/06 00:42:21;;;;;;;7.87;4.30;;;;;;;-141.28;100.00;49855.25;5072918;28;20219;-76
2022/09/06 00:44:49;;;;;;;6.57;3.80;;;;;;;-141.28;100.00;49855.25;5090570;28;20192;-76
2022/09/06 00:47:18;;;;;;;6.93;4.30;;;;;;;-141.28;100.00;49874.88;5081791;28;20219;-76
2022/09/06 00:49:49;;;;;;;5.47;4.07;;;;;;;-141.28;100.00;49855.25;5073341;28;20192;-76
2022/09/06 00:52:18;;;;;;;8.10;3.80;;;;;;;-141.28;100.00;49855.25;5072596;28;20655;-76
2022/09/06 00:54:46;;;;;;;4.63;3.90;;;;;;;-141.28;100.00;49839.56;5085858;28;20200;-74
2022/09/06 00:57:14;;;;;;;4.90;3.90;;;;;;;-141.28;100.00;49863.09;5072288;28;20624;-75
2022/09/06 00:59:42;;;;;;;4.80;3.80;;;;;;;-141.28;100.00;49878.81;5078945;28;20196;-74
2022/09/06 01:02:11;;;;;;;4.17;3.50;;;;;;;-141.28;100.00;49874.88;5091834;28;20773;-75
2022/09/06 01:04:44;;;;;;;10.73;4.40;;;;;;;-141.28;100.00;49878.81;5072497;28;20207;-77
2022/09/06 01:07:18;;;;;;;4.20;3.73;;;;;;;-141.28;100.00;49910.19;5071996;28;20215;-75
2022/09/06 01:10:04;;;;;;;6.17;4.27;;;;;;;-141.28;100.00;49937.69;5082026;28;20198;-76
2022/09/06 01:12:42;;;;;;;6.13;3.57;;;;;;;-141.28;100.00;49921.97;5098213;28;20241;-73
2022/09/06 01:15:19;;;;;;;3.90;3.33;;;;;;;-141.28;100.00;49912.16;5110833;28;20221;-76
2022/09/06 01:17:55;;;;;;;4.67;3.70;;;;;;;-141.28;100.00;49874.88;5092434;28;20665;-75
2022/09/06 01:20:45;;;;;;;6.00;3.50;;;;;;;-141.28;100.00;49906.28;5083490;28;20270;-76
2022/09/06 01:23:45;;;;;;;8.27;4.10;;;;;;;-141.28;100.00;49867.03;5108809;28;20198;-75
2022/09/06 01:26:53;;;;;;;5.57;3.67;;;;;;;-141.28;100.00;49900.38;5038507;28;20277;-75
2022/09/06 01:29:29;;;;;;;4.30;3.33;;;;;;;-141.28;100.00;49969.06;5093424;28;20661;-75
2022/09/06 01:32:03;;;;;;;10.07;3.50;;;;;;;-141.28;100.00;49843.47;5088897;28;20286;-75
2022/09/06 01:34:37;;;;;;;7.20;3.70;;;;;;;-141.28;100.00;49827.78;5085471;28;20673;-75
2022/09/06 01:37:11;;;;;;;3.40;3.10;;;;;;;-141.28;100.00;49804.22;5091648;28;20203;-75
2022/09/06 01:39:39;;;;;;;5.50;3.50;;;;;;;-141.28;100.00;49808.16;5078226;28;20558;-76
2022/09/06 01:42:10;;;;;;;5.53;3.43;;;;;;;-141.28;100.00;49761.06;5073168;28;20632;-76
2022/09/06 01:44:43;;;;;;;5.33;3.73;;;;;;;-141.28;100.00;49757.13;5072670;28;20257;-74
2022/09/06 01:47:22;;;;;;;3.80;3.37;;;;;;;-141.28;100.00;49764.97;5082635;28;20219;-76
2022/09/06 01:50:08;;;;;;;8.30;5.50;;;;;;;-141.28;100.00;49757.13;5083239;28;20206;-74
2022/09/06 01:52:45;;;;;;;13.27;6.60;;;;;;;-141.28;100.00;49749.28;5112474;28;20255;-75
2022/09/06 01:55:22;;;;;;;10.27;5.90;;;;;;;-141.28;100.00;49733.56;5094014;28;20196;-76
2022/09/06 01:58:01;;;;;;;11.03;5.97;;;;;;;-141.28;100.00;49706.09;5094586;28;20226;-75
2022/09/06 02:00:30;;;;;;;8.77;6.23;;;;;;;-141.28;100.00;49653.13;5092359;28;20194;-75
2022/09/06 02:03:09;;;;;;;11.70;5.80;;;;;;;-141.28;100.00;49666.84;5078980;28;20200;-75
2022/09/06 02:05:41;;;;;;;8.37;5.70;;;;;;;-141.28;100.00;49635.47;5112321;28;20205;-76
2022/09/06 02:08:11;;;;;;;7.57;4.67;;;;;;;-141.28;100.00;49617.78;5091722;28;20215;-75
2022/09/06 02:10:43;;;;;;;8.17;5.13;;;;;;;-141.28;100.00;49588.34;5099762;28;20191;-74
2022/09/06 02:13:15;;;;;;;16.23;10.97;;;;;;;-141.28;100.00;49590.31;5080175;28;20200;-77
2022/09/06 02:15:49;;;;;;;20.03;13.93;;;;;;;-141.28;100.00;49584.44;5083427;28;20599;-77
2022/09/06 02:18:22;;;;;;;19.60;14.33;;;;;;;-141.28;100.00;49570.69;5082693;28;20199;-75
2022/09/06 02:20:51;;;;;;;24.17;17.27;;;;;;;-141.28;100.00;49556.97;5073978;28;20199;-74
2022/09/06 02:23:20;;;;;;;20.50;13.10;;;;;;;-141.28;100.00;49521.63;5071632;28;20587;-75
2022/09/06 02:25:54;;;;;;;8.20;6.27;;;;;;;-141.28;100.00;49517.72;5084698;28;20204;-76
2022/09/06 02:28:21;;;;;;;9.77;5.90;;;;;;;-141.28;100.00;49505.94;5073879;28;20310;-75
2022/09/06 02:30:54;;;;;;;9.90;6.13;;;;;;;-141.28;100.00;49494.16;5091623;28;20706;-76
2022/09/06 02:33:25;;;;;;;19.57;7.40;;;;;;;-141.28;100.00;49470.63;5104387;28;20202;-77
2022/09/06 02:35:54;;;;;;;10.80;7.13;;;;;;;-141.28;100.00;49443.16;5099292;28;20650;-76
2022/09/06 02:38:23;;;;;;;9.10;6.57;;;;;;;-141.28;100.00;49409.78;5111245;28;20191;-75
2022/09/06 02:40:53;;;;;;;15.17;6.70;;;;;;;-141.28;100.00;49413.72;5111591;28;20203;-74
2022/09/06 02:43:20;;;;;;;11.00;6.23;;;;;;;-141.28;100.00;49411.75;5111443;28;20319;-75
2022/09/06 02:45:48;;;;;;;9.57;6.80;;;;;;;-141.28;100.00;49384.28;5102821;28;20214;-75
2022/09/06 02:48:16;;;;;;;10.93;6.00;;;;;;;-141.28;100.00;49374.47;5094777;28;20230;-76
2022/09/06 02:50:43;;;;;;;18.67;13.40;;;;;;;-141.28;100.00;49360.75;5106242;28;20195;-76
2022/09/06 02:53:11;;;;;;;18.70;12.83;;;;;;;-141.28;100.00;49356.81;5079717;28;20200;-75
2022/09/06 02:55:40;;;;;;;17.67;13.47;;;;;;;-141.28;100.00;49341.13;5076990;28;20191;-75
2022/09/06 02:58:10;;;;;;;14.33;10.57;;;;;;;-141.28;100.00;49333.25;5095562;28;20244;-76
2022/09/06 03:00:38;;;;;;;16.97;12.20;;;;;;;-141.28;100.00;49333.25;5089468;28;20222;-75
2022/09/06 03:03:05;;;;;;;15.97;11.93;;;;;;;-141.28;100.00;49333.25;5093688;28;20194;-74
2022/09/06 03:05:34;;;;;;;14.63;9.93;;;;;;;-141.28;100.00;49313.66;5111114;28;20199;-76
2022/09/06 03:08:03;;;;;;;9.17;7.00;;;;;;;-141.28;100.00;49307.75;5110971;28;20227;-77
2022/09/06 03:10:31;;;;;;;9.63;7.40;;;;;;;-141.28;100.00;49294.03;5098197;28;20653;-75
2022/09/06 03:12:58;;;;;;;8.83;6.63;;;;;;;-141.28;100.00;49274.41;5110372;28;20206;-76
2022/09/06 03:15:25;;;;;;;13.23;7.40;;;;;;;-141.28;100.00;49262.63;5104107;28;20203;-75
2022/09/06 03:17:57;;;;;;;15.03;7.40;;;;;;;-141.28;100.00;49274.41;5103440;28;20206;-76
2022/09/06 03:20:24;;;;;;;16.50;7.93;;;;;;;-141.28;100.00;49286.16;5090714;28;20195;-75
2022/09/06 03:22:52;;;;;;;9.70;6.07;;;;;;;-141.28;100.00;49274.41;5090061;28;20202;-75
2022/09/06 03:25:19;;;;;;;11.10;7.10;;;;;;;-141.28;100.00;49278.31;5085874;28;20196;-75
2022/09/06 03:27:46;;;;;;;8.70;6.83;;;;;;;-141.28;100.00;49270.47;5095228;28;20222;-75
2022/09/06 03:30:13;;;;;;;8.50;6.47;;;;;;;-141.28;100.00;49262.63;5109054;28;20679;-75
2022/09/06 03:32:40;;;;;;;11.00;6.53;;;;;;;-141.28;100.00;49278.31;5083039;28;20193;-74
2022/09/06 03:35:08;;;;;;;13.27;7.17;;;;;;;-141.28;100.00;49260.66;5073035;28;20207;-76
2022/09/06 03:37:36;;;;;;;9.50;6.23;;;;;;;-141.28;100.00;49266.56;5084559;28;20200;-75
2022/09/06 03:40:06;;;;;;;7.73;6.30;;;;;;;-141.28;100.00;49276.38;5080248;28;20215;-76
2022/09/06 03:42:33;;;;;;;13.93;6.77;;;;;;;-141.28;100.00;49274.41;5074952;28;20372;-75
2022/09/06 03:45:00;;;;;;;12.40;7.27;;;;;;;-141.28;100.00;49286.16;5082869;28;20199;-76
2022/09/06 03:47:27;;;;;;;14.07;6.83;;;;;;;-141.28;100.00;49252.81;5088888;28;20219;-76
2022/09/06 03:49:54;;;;;;;13.93;7.47;;;;;;;-141.28;100.00;49211.59;5081052;28;20195;-77
2022/09/06 03:52:21;;;;;;;9.10;6.17;;;;;;;-141.28;100.00;49203.75;5082659;28;20192;-75
2022/09/06 03:54:48;;;;;;;9.80;7.37;;;;;;;-141.28;100.00;49152.75;5088042;28;20200;-75
2022/09/06 03:57:16;;;;;;;14.13;7.57;;;;;;;-141.28;100.00;49166.47;5074917;28;20301;-76
2022/09/06 03:59:43;;;;;;;16.60;7.00;;;;;;;-141.28;100.00;49148.81;5074652;28;20196;-76
2022/09/06 04:02:10;;;;;;;15.60;6.83;;;;;;;-141.28;100.00;49152.75;5074904;28;20228;-77
2022/09/06 04:04:37;;;;;;;17.23;6.97;;;;;;;-141.28;100.00;49144.91;5075140;28;20196;-77
2022/09/06 04:07:04;;;;;;;15.63;6.67;;;;;;;-141.28;100.00;49125.28;5087912;28;20203;-76
2022/09/06 04:09:33;;;;;;;12.40;6.53;;;;;;;-141.28;100.00;49146.84;5094143;28;20279;-75
2022/09/06 04:12:01;;;;;;;19.73;7.00;;;;;;;-141.28;100.00;49148.81;5094689;28;20658;-76
2022/09/06 04:14:29;;;;;;;16.60;6.43;;;;;;;-141.28;100.00;49178.25;5077920;28;20200;-75
2022/09/06 04:16:58;;;;;;;15.17;6.67;;;;;;;-141.28;100.00;49160.59;5105689;28;20534;-77
2022/09/06 04:19:28;;;;;;;13.63;7.27;;;;;;;-141.28;100.00;49156.66;5081706;28;20206;-74
2022/09/06 04:21:55;;;;;;;12.40;7.00;;;;;;;-141.28;100.00;49091.91;5094803;28;20605;-75
2022/09/06 04:24:22;;;;;;;9.10;5.83;;;;;;;-141.28;100.00;49176.28;5086738;28;20557;-77
2022/09/06 04:26:49;;;;;;;9.43;5.67;;;;;;;-141.28;100.00;49154.72;5089282;28;20739;-75
2022/09/06 04:29:17;;;;;;;8.30;5.67;;;;;;;-141.28;100.00;49174.34;5086629;28;20702;-75
2022/09/06 04:31:46;;;;;;;6.87;5.70;;;;;;;-141.28;100.00;49148.81;5090015;28;20200;-75
2022/09/06 04:34:15;;;;;;;10.80;5.83;;;;;;;-141.28;100.00;49140.97;5081789;28;20200;-77
2022/09/06 04:36:42;;;;;;;11.03;5.47;;;;;;;-141.28;100.00;49137.06;5106595;28;20617;-76
2022/09/06 04:39:09;;;;;;;9.73;5.40;;;;;;;-141.28;100.00;49121.34;5106675;28;20281;-76
2022/09/06 04:41:36;;;;;;;10.03;4.93;;;;;;;-141.28;100.00;49133.13;5112871;28;20215;-76
2022/09/06 04:44:03;;;;;;;11.27;6.23;;;;;;;-141.28;100.00;49137.06;5113945;28;20194;-76
2022/09/06 04:46:31;;;;;;;12.43;5.87;;;;;;;-141.28;100.00;49144.91;5075474;28;20196;-75
2022/09/06 04:49:00;;;;;;;12.43;6.67;;;;;;;-141.28;100.00;49148.81;5108904;28;20227;-75
2022/09/06 04:51:27;;;;;;;18.17;6.30;;;;;;;-141.28;100.00;49140.97;5102316;28;20195;-75
2022/09/06 04:53:54;;;;;;;11.43;6.83;;;;;;;-141.28;100.00;49148.81;5111268;28;20195;-76
2022/09/06 04:56:25;;;;;;;8.83;6.27;;;;;;;-141.28;100.00;49174.34;5113466;28;20207;-76
2022/09/06 04:58:54;;;;;;;10.03;6.90;;;;;;;-141.28;100.00;49184.13;5096817;28;20207;-76
2022/09/06 05:01:21;;;;;;;12.03;6.87;;;;;;;-141.28;100.00;49195.91;5073728;28;20235;-75
2022/09/06 05:03:49;;;;;;;8.43;5.93;;;;;;;-141.28;100.00;49205.72;5073326;28;20204;-73
2022/09/06 05:06:22;;;;;;;12.37;7.03;;;;;;;-141.28;100.00;49262.63;5082378;28;20200;-75
2022/09/06 05:08:49;;;;;;;9.13;5.27;;;;;;;-141.28;100.00;49282.25;5092702;28;20704;-76
2022/09/06 05:11:17;;;;;;;13.33;5.77;;;;;;;-141.28;100.00;49305.78;5083655;28;20549;-75
2022/09/06 05:13:45;;;;;;;14.43;5.40;;;;;;;-141.28;100.00;49348.97;5086716;28;20196;-76
2022/09/06 05:16:13;;;;;;;11.67;5.53;;;;;;;-141.28;100.00;49374.47;5073610;28;20196;-76
2022/09/06 05:18:40;;;;;;;9.80;5.27;;;;;;;-141.28;100.00;49411.75;5060711;28;20206;-77
2022/09/06 05:21:08;;;;;;;10.20;5.23;;;;;;;-141.28;100.00;49474.53;5093978;28;20583;-75
2022/09/06 05:23:36;;;;;;;8.77;5.67;;;;;;;-141.28;100.00;49537.34;5077524;28;20204;-76
2022/09/06 05:26:03;;;;;;;10.13;5.20;;;;;;;-141.28;100.00;49635.47;5082058;28;20195;-77
2022/09/06 05:28:31;;;;;;;8.77;5.70;;;;;;;-141.28;100.00;49659.00;5092469;28;20223;-76
2022/09/06 05:31:06;;;;;;;11.90;5.30;;;;;;;-141.28;100.00;49831.69;5084553;28;20192;-76
2022/09/06 05:33:33;;;;;;;8.47;5.57;;;;;;;-141.28;100.00;49894.50;5078775;28;20679;-75
2022/09/06 05:36:00;;;;;;;10.77;5.63;;;;;;;-141.28;100.00;50014.22;5112580;28;20203;-74
2022/09/06 05:38:27;;;;;;;10.07;5.40;;;;;;;-141.28;100.00;50092.72;5111469;28;20206;-76
2022/09/06 05:40:56;;;;;;;8.00;5.13;;;;;;;-141.28;100.00;50204.59;5112666;28;20281;-77
2022/09/06 05:43:23;;;;;;;9.30;5.67;;;;;;;-141.28;100.00;50322.34;5094070;28;20546;-75
2022/09/06 05:45:51;;;;;;;10.70;5.37;;;;;;;-141.28;100.00;50385.16;5088694;28;20644;-75
2022/09/06 05:48:18;;;;;;;11.37;6.43;;;;;;;-141.28;100.00;50414.63;5072105;28;20730;-75
2022/09/06 05:50:47;;;;;;;13.70;5.77;;;;;;;-141.28;100.00;50444.06;5096902;28;20282;-74
2022/09/06 05:53:14;;;;;;;10.53;5.73;;;;;;;-141.28;100.00;50491.16;5099241;28;20654;-75
2022/09/06 05:55:41;;;;;;;13.63;6.27;;;;;;;-141.28;100.00;50518.66;5092684;28;20212;-77
2022/09/06 05:58:11;;;;;;;10.97;5.97;;;;;;;-141.28;100.00;50559.88;5077807;28;20682;-76
2022/09/06 06:00:38;;;;;;;12.27;5.97;;;;;;;-141.28;100.00;50424.44;5080803;28;20195;-75
2022/09/06 06:03:06;;;;;;;13.10;6.53;;;;;;;-141.28;100.00;50355.72;5076856;28;20697;-76
2022/09/06 06:05:33;;;;;;;9.93;6.30;;;;;;;-141.28;100.00;50398.91;5072736;28;20196;-75
2022/09/06 06:08:00;;;;;;;14.07;6.73;;;;;;;-141.28;100.00;50406.75;5072210;28;20203;-77
2022/09/06 06:10:27;;;;;;;8.10;5.73;;;;;;;-141.28;100.00;50430.31;5081591;28;20237;-76
2022/09/06 06:12:57;;;;;;;9.43;6.63;;;;;;;-141.28;100.00;50491.16;5076357;28;20199;-75
2022/09/06 06:15:26;;;;;;;11.50;6.13;;;;;;;-141.28;100.00;50538.28;5074622;28;20584;-75
2022/09/06 06:17:55;;;;;;;11.60;6.80;;;;;;;-141.28;100.00;50563.78;5106760;28;20187;-76
2022/09/06 06:20:23;;;;;;;11.23;7.13;;;;;;;-141.28;100.00;50565.75;5097559;28;20211;-77
2022/09/06 06:22:51;;;;;;;9.77;6.60;;;;;;;-141.28;100.00;50628.56;5083133;28;20614;-75
2022/09/06 06:25:21;;;;;;;12.33;8.77;;;;;;;-141.28;100.00;50714.94;5101192;28;20295;-77
2022/09/06 06:27:49;;;;;;;16.57;13.87;;;;;;;-141.28;100.00;50956.41;5090978;28;20260;-76
2022/09/06 06:30:17;;;;;;;12.20;9.27;;;;;;;-141.28;100.00;51064.38;5081800;28;20211;-74
2022/09/06 06:32:47;;;;;;;12.90;7.60;;;;;;;-141.28;100.00;51032.97;5088727;28;20193;-75
2022/09/06 06:35:17;;;;;;;15.90;7.83;;;;;;;-141.28;100.00;51029.03;5073290;28;20208;-76
2022/09/06 06:37:47;;;;;;;12.00;7.60;;;;;;;-141.28;100.00;51087.94;5091725;28;20187;-77
2022/09/06 06:40:14;;;;;;;12.60;7.63;;;;;;;-141.28;100.00;51193.94;5095788;28;20191;-76
2022/09/06 06:42:41;;;;;;;11.27;7.87;;;;;;;-141.28;100.00;51390.28;5098823;28;20224;-76
2022/09/06 06:45:09;;;;;;;10.70;7.50;;;;;;;-141.28;100.00;51515.94;5077847;28;20199;-75
2022/09/06 06:47:36;;;;;;;12.33;8.23;;;;;;;-141.28;100.00;51451.16;5079843;28;20643;-74
2022/09/06 06:50:07;;;;;;;9.70;7.60;;;;;;;-141.28;100.00;51535.56;5091317;28;20237;-75
2022/09/06 06:52:33;;;;;;;11.03;8.67;;;;;;;-141.28;100.00;51539.50;5078388;28;20195;-74
2022/09/06 06:55:00;;;;;;;9.50;7.70;;;;;;;-141.28;100.00;51625.91;5105063;28;20267;-75
2022/09/06 06:57:28;;;;;;;13.40;8.03;;;;;;;-141.28;100.00;51631.78;5091715;28;20227;-75
2022/09/06 06:59:55;;;;;;;11.10;7.60;;;;;;;-141.28;100.00;51790.84;5104971;28;20211;-75
2022/09/06 07:02:24;;;;;;;13.13;8.00;;;;;;;-141.28;100.00;51947.94;5111632;28;20222;-76
2022/09/06 07:04:52;;;;;;;14.73;7.07;;;;;;;-141.28;100.00;52002.91;5109398;28;20282;-75
2022/09/06 07:07:21;;;;;;;13.60;7.03;;;;;;;-141.28;100.00;51995.06;5071430;28;20262;-75
2022/09/06 07:09:51;;;;;;;14.87;7.50;;;;;;;-141.28;100.00;51892.94;5088043;28;20325;-76
2022/09/06 07:12:20;;;;;;;10.60;7.50;;;;;;;-141.28;100.00;51963.63;5098602;28;20609;-77
2022/09/06 07:14:47;;;;;;;12.53;7.33;;;;;;;-141.28;100.00;51944.00;5078807;28;20218;-76
2022/09/06 07:17:16;;;;;;;7.90;6.10;;;;;;;-141.28;100.00;52034.34;5075606;28;20203;-75
2022/09/06 07:19:44;;;;;;;13.23;5.60;;;;;;;-141.28;100.00;52048.09;5078946;28;20592;-75
2022/09/06 07:22:11;;;;;;;12.10;7.10;;;;;;;-141.28;100.00;52108.97;5078604;28;20651;-76
2022/09/06 07:24:40;;;;;;;8.13;6.50;;;;;;;-141.28;100.00;52093.25;5082124;28;20207;-75
2022/09/06 07:27:09;;;;;;;13.50;6.37;;;;;;;-141.28;100.00;52089.31;5096561;28;20654;-76
2022/09/06 07:29:37;;;;;;;8.03;5.40;;;;;;;-141.28;100.00;52108.97;5083450;28;20219;-76
2022/09/06 07:32:04;;;;;;;7.73;5.07;;;;;;;-141.28;100.00;52077.53;5083964;28;20192;-75
2022/09/06 07:34:36;;;;;;;9.97;5.73;;;;;;;-141.28;100.00;52110.94;5057643;28;20200;-76
2022/09/06 07:37:05;;;;;;;7.53;4.87;;;;;;;-141.28;100.00;52124.66;5075678;28;20275;-77
2022/09/06 07:39:35;;;;;;;7.47;5.33;;;;;;;-141.28;100.00;52156.09;5095939;28;20199;-75
2022/09/06 07:42:05;;;;;;;8.43;6.30;;;;;;;-141.28;100.00;52116.81;5096829;28;20285;-77
2022/09/06 07:44:32;;;;;;;6.17;5.47;;;;;;;-141.28;100.00;52167.88;5075488;28;20258;-77
2022/09/06 07:47:01;;;;;;;8.23;5.37;;;;;;;-141.28;100.00;52097.19;5078027;28;20204;-75
2022/09/06 07:49:28;;;;;;;10.70;6.33;;;;;;;-141.28;100.00;52120.75;5074141;28;20285;-76
2022/09/06 07:51:57;;;;;;;9.57;5.67;;;;;;;-141.28;100.00;52099.13;5101591;28;20316;-77
2022/09/06 07:54:25;;;;;;;8.00;5.60;;;;;;;-141.28;100.00;52122.72;5075503;28;20223;-76
2022/09/06 07:56:53;;;;;;;13.43;6.30;;;;;;;-141.28;100.00;52093.25;5081617;28;20208;-75
2022/09/06 07:59:23;;;;;;;8.80;6.10;;;;;;;-141.28;100.00;52042.19;5074348;28;20200;-75
2022/09/06 08:01:52;;;;;;;9.37;6.53;;;;;;;-141.28;100.00;51987.22;5087956;28;20223;-76
2022/09/06 08:04:20;;;;;;;11.13;5.70;;;;;;;-141.28;100.00;51999.00;5074209;28;20201;-74
2022/09/06 08:06:49;;;;;;;8.87;6.10;;;;;;;-141.28;100.00;51977.38;5074425;28;20200;-75
2022/09/06 08:09:16;;;;;;;7.60;5.47;;;;;;;-141.28;100.00;51938.13;5074466;28;20234;-76
2022/09/06 08:11:44;;;;;;;7.83;5.60;;;;;;;-141.28;100.00;51843.84;5075062;28;20200;-75
2022/09/06 08:14:12;;;;;;;10.97;5.80;;;;;;;-141.28;100.00;51837.97;5075113;28;20389;-74
2022/09/06 08:16:42;;;;;;;10.53;6.13;;;;;;;-141.28;100.00;51786.91;5078270;28;20690;-75
2022/09/06 08:19:11;;;;;;;7.23;5.40;;;;;;;-141.28;100.00;51794.75;5096572;28;20485;-77
2022/09/06 08:21:39;;;;;;;7.73;4.83;;;;;;;-141.28;100.00;51728.00;5086655;28;20655;-75
2022/09/06 08:24:08;;;;;;;7.23;5.77;;;;;;;-141.28;100.00;51700.50;5088274;28;20260;-78
2022/09/06 08:26:39;;;;;;;7.40;5.47;;;;;;;-141.28;100.00;51563.06;5085642;28;20279;-76
2022/09/06 08:29:07;;;;;;;6.20;4.93;;;;;;;-141.28;100.00;51398.13;5084844;28;20668;-76
2022/09/06 08:31:37;;;;;;;6.83;4.80;;;;;;;-141.28;100.00;51237.13;5093449;28;20693;-76
2022/09/06 08:34:06;;;;;;;7.73;5.23;;;;;;;-141.28;100.00;51217.50;5090942;28;20279;-75
2022/09/06 08:36:33;;;;;;;8.47;6.20;;;;;;;-141.28;100.00;51119.34;5073634;28;20205;-77
2022/09/06 08:39:02;;;;;;;15.27;5.97;;;;;;;-141.28;100.00;51056.53;5074342;28;20204;-76
2022/09/06 08:41:33;;;;;;;9.57;5.57;;;;;;;-141.28;100.00;51015.28;5073855;28;20218;-77
2022/09/06 08:44:04;;;;;;;7.67;5.93;;;;;;;-141.28;100.00;50871.97;5091592;28;20202;-77
2022/09/06 08:46:37;;;;;;;12.07;6.17;;;;;;;-141.28;100.00;50781.69;5082396;28;20218;-75
2022/09/06 08:49:06;;;;;;;7.33;4.17;;;;;;;-141.28;100.00;50557.91;5073911;28;20235;-75
2022/09/06 08:51:53;;;;;;;6.50;4.60;;;;;;;-141.28;100.00;50334.13;5086000;28;20208;-76
2022/09/06 08:54:27;;;;;;;8.30;4.77;;;;;;;-141.28;100.00;50396.94;5083832;28;20207;-76
2022/09/06 08:57:03;;;;;;;5.57;4.37;;;;;;;-141.28;100.00;50377.31;5073418;28;20199;-75
2022/09/06 08:59:36;;;;;;;5.73;5.10;;;;;;;-141.28;100.00;50322.34;5073641;28;20293;-78
2022/09/06 09:02:10;;;;;;;6.43;4.33;;;;;;;-141.28;100.00;50255.63;5078443;28;20232;-76
2022/09/06 09:04:44;;;;;;;6.13;4.40;;;;;;;-141.28;100.00;50294.88;5079997;28;20208;-75
2022/09/06 09:07:38;;;;;;;6.33;4.33;;;;;;;-141.28;100.00;50279.19;5074026;28;20250;-76
2022/09/06 09:10:12;;;;;;;5.13;4.10;;;;;;;-141.28;100.00;50096.66;5073369;28;20227;-76
2022/09/06 09:12:44;;;;;;;7.97;4.63;;;;;;;-141.28;100.00;50063.28;5093370;28;20673;-76
2022/09/06 09:15:14;;;;;;;7.90;4.50;;;;;;;-141.28;100.00;50031.88;5081997;28;20199;-75
2022/09/06 09:17:42;;;;;;;5.90;3.97;;;;;;;-141.28;100.00;50026.00;5093045;28;20539;-76
2022/09/06 09:20:14;;;;;;;5.00;4.53;;;;;;;-141.28;100.00;50167.31;5091708;28;20208;-75
2022/09/06 09:22:44;;;;;;;6.37;4.53;;;;;;;-141.28;100.00;50075.06;5081712;28;20202;-75
2022/09/06 09:25:20;;;;;;;5.87;4.00;;;;;;;-141.28;100.00;49992.63;5090476;28;20211;-76
2022/09/06 09:27:49;;;;;;;4.97;4.37;;;;;;;-141.28;100.00;50259.56;5093997;28;20194;-76
2022/09/06 09:30:16;;;;;;;4.63;3.67;;;;;;;-141.28;100.00;50275.25;5108371;28;20223;-75
2022/09/06 09:32:45;;;;;;;4.50;4.00;;;;;;;-141.28;100.00;50283.09;5102998;28;20194;-75
2022/09/06 09:35:32;;;;;;;5.07;4.20;;;;;;;-141.28;100.00;50173.19;5107960;28;20207;-74
2022/09/06 09:38:07;;;;;;;5.43;3.47;;;;;;;-141.28;100.00;50322.34;5079056;28;20269;-75
2022/09/06 09:40:38;;;;;;;4.43;4.03;;;;;;;-141.28;100.00;50147.69;5084103;28;20204;-75
2022/09/06 09:43:15;;;;;;;4.53;4.13;;;;;;;-141.28;100.00;50206.56;5089196;28;20210;-76
2022/09/06 09:45:43;;;;;;;5.17;4.00;;;;;;;-141.28;100.00;50131.97;5082953;28;20574;-78
2022/09/06 09:48:20;;;;;;;8.50;4.23;;;;;;;-141.28;100.00;50181.03;5083296;28;20224;-76
2022/09/06 09:50:49;;;;;;;6.53;4.37;;;;;;;-141.28;100.00;50165.34;5075459;28;20690;-75
2022/09/06 09:53:18;;;;;;;6.20;4.30;;;;;;;-141.28;100.00;50110.38;5094136;28;20201;-76
2022/09/06 09:55:47;;;;;;;7.07;4.60;;;;;;;-141.28;100.00;49947.50;5112130;28;20202;-75
2022/09/06 09:58:31;;;;;;;7.20;4.60;;;;;;;-141.28;100.00;49890.56;5097421;28;20256;-75
2022/09/06 10:01:16;;;;;;;5.93;4.20;;;;;;;-141.28;100.00;49568.75;5110461;28;20309;-75
2022/09/06 10:03:44;;;;;;;5.00;3.47;;;;;;;-141.28;100.00;49174.34;5101269;28;20200;-75
2022/09/06 10:06:14;;;;;;;5.13;3.80;;;;;;;-141.28;100.00;49019.31;5093706;28;20199;-75
2022/09/06 10:08:43;;;;;;;3.97;3.67;;;;;;;-141.28;100.00;48921.22;5099322;28;20583;-76
2022/09/06 10:11:14;;;;;;;4.10;3.70;;;;;;;-141.28;100.00;48925.16;5089615;28;20216;-75
2022/09/06 10:13:43;;;;;;;3.63;3.33;;;;;;;-141.28;100.00;48829.00;5090595;28;20207;-74
2022/09/06 10:16:10;;;;;;;3.43;3.00;;;;;;;-141.28;100.00;48791.75;5097980;28;20201;-75
2022/09/06 10:18:39;;;;;;;4.80;3.90;;;;;;;-141.28;100.00;48793.69;5113216;28;20223;-77
2022/09/06 10:21:09;;;;;;;4.87;3.47;;;;;;;-141.28;100.00;48795.66;5109774;28;20191;-77
2022/09/06 10:23:48;;;;;;;3.93;3.30;;;;;;;-141.28;100.00;48774.09;5107534;28;20199;-77
2022/09/06 10:26:22;;;;;;;4.30;3.47;;;;;;;-141.28;100.00;48779.97;5088289;28;20215;-76
2022/09/06 10:28:57;;;;;;;6.57;3.33;;;;;;;-141.28;100.00;48768.19;5090404;28;20640;-78
2022/09/06 10:31:51;;;;;;;4.00;3.33;;;;;;;-141.28;100.00;48791.75;5100290;28;20249;-75
2022/09/06 10:34:42;;;;;;;5.60;2.83;;;;;;;-141.28;100.00;48783.91;5079152;28;20224;-77
2022/09/06 10:37:20;;;;;;;5.20;2.50;;;;;;;-141.28;100.00;48809.41;5104634;28;20245;-75
2022/09/06 10:39:56;;;;;;;5.17;2.67;;;;;;;-141.28;100.00;48809.41;5109434;28;20655;-75
2022/09/06 10:42:35;;;;;;;6.60;3.30;;;;;;;-141.28;100.00;48893.75;5086444;28;20220;-75
2022/09/06 10:45:21;;;;;;;4.47;3.67;;;;;;;-141.28;100.00;48772.13;5106499;28;20201;-76
2022/09/06 10:48:11;;;;;;;5.67;2.80;;;;;;;-141.28;100.00;48791.75;5071599;28;20197;-75
2022/09/06 10:50:45;;;;;;;4.60;3.03;;;;;;;-141.28;100.00;48795.66;5068117;28;20261;-76
2022/09/06 10:53:16;;;;;;;3.90;2.90;;;;;;;-141.28;94.76;48760.34;5071115;28;20210;-77
2022/09/06 10:55:49;;;;;;;5.73;2.70;;;;;;;-141.28;84.79;48768.19;5071738;28;20198;-77
2022/09/06 10:58:25;;;;;;;4.20;2.93;;;;;;;-141.28;84.70;48783.91;5074982;28;20211;-76
2022/09/06 11:00:55;;;;;;;6.60;4.97;;;;;;;-141.28;78.37;48768.19;5073742;28;20314;-77
2022/09/06 11:03:29;;;;;;;8.37;5.33;;;;;;;-141.28;82.55;48736.81;5072512;28;20627;-76
2022/09/06 11:06:02;;;;;;;4.13;3.00;;;;;;;-141.28;82.72;48748.56;5054617;28;20260;-76
2022/09/06 11:08:36;;;;;;;3.37;2.87;;;;;;;-141.28;76.93;48772.13;5076213;28;20645;-76
2022/09/06 11:11:11;;;;;;;3.87;2.67;;;;;;;-141.28;76.83;48791.75;5079082;28;20729;-76
2022/09/06 11:13:39;;;;;;;4.60;3.80;;;;;;;-141.28;76.99;48807.44;5078381;28;20201;-75
2022/09/06 11:16:13;;;;;;;3.87;3.40;;;;;;;-141.28;76.23;48791.75;5104200;28;20216;-76
2022/09/06 11:18:47;;;;;;;6.40;3.20;;;;;;;-141.28;78.02;48795.66;5082677;28;20198;-77
2022/09/06 11:22:01;;;;;;;3.83;3.20;;;;;;;-141.28;72.53;48752.50;5071379;28;20560;-76